Time;durP1;ratioP1;P1;durP2;ratioP2;P2;SDS_P1;SDS_P2;PMS_P1;PMS_P2;Temp;Humidity;BMP_temperature;BMP_pressure;BME280_temperature;BME280_humidity;BME280_pressure;Samples;Min_cycle;Max_cycle;Signal;HPM_P1;HPM_P2
2023/06/03 00:00:41;;;;;;;9.27;5.18;;;;;;;12.63;64.95;98373.34;5003624;28;20038;-75
2023/06/03 00:03:13;;;;;;;12.50;5.78;;;;;;;12.54;65.49;98380.25;5017030;28;20040;-76
2023/06/03 00:05:41;;;;;;;12.35;5.50;;;;;;;12.83;64.94;98382.50;4999616;28;20038;-75
2023/06/03 00:08:07;;;;;;;11.23;5.32;;;;;;;12.71;64.79;98383.72;5021888;28;20025;-75
2023/06/03 00:10:32;;;;;;;10.23;5.38;;;;;;;12.77;64.92;98385.38;5014288;28;20044;-75
2023/06/03 00:12:57;;;;;;;7.50;5.35;;;;;;;12.94;64.23;98386.13;5021440;28;20025;-76
2023/06/03 00:15:23;;;;;;;11.02;5.45;;;;;;;12.65;65.09;98373.91;5008754;28;20398;-75
2023/06/03 00:17:48;;;;;;;8.07;4.93;;;;;;;12.42;65.77;98372.28;5043457;28;20048;-75
2023/06/03 00:20:14;;;;;;;14.63;5.07;;;;;;;12.86;64.45;98373.06;4991290;28;20065;-76
2023/06/03 00:22:40;;;;;;;10.13;4.78;;;;;;;12.53;65.20;98375.94;5037488;28;20021;-76
2023/06/03 00:25:07;;;;;;;12.40;4.93;;;;;;;12.63;65.14;98379.56;5027343;28;20156;-73
2023/06/03 00:27:33;;;;;;;10.15;5.07;;;;;;;12.78;63.93;98373.50;4997467;28;20049;-73
2023/06/03 00:30:00;;;;;;;13.27;5.32;;;;;;;12.83;63.97;98381.69;5000126;28;20037;-74
2023/06/03 00:32:25;;;;;;;9.90;5.55;;;;;;;12.62;64.53;98374.41;5023039;28;20091;-73
2023/06/03 00:34:50;;;;;;;8.55;4.65;;;;;;;12.70;64.19;98379.34;5053254;28;20398;-74
2023/06/03 00:37:16;;;;;;;9.27;5.30;;;;;;;12.59;64.86;98377.63;5006404;28;20040;-73
2023/06/03 00:39:41;;;;;;;9.38;5.00;;;;;;;12.72;63.86;98383.44;4999211;28;20635;-73
2023/06/03 00:42:07;;;;;;;12.23;4.75;;;;;;;12.67;63.99;98386.09;5026117;28;20017;-73
2023/06/03 00:44:32;;;;;;;12.77;5.45;;;;;;;12.41;64.87;98382.28;5036006;28;20049;-75
2023/06/03 00:46:58;;;;;;;7.28;5.25;;;;;;;12.52;64.72;98377.00;5022620;28;20030;-75
2023/06/03 00:49:23;;;;;;;7.68;4.68;;;;;;;12.36;65.25;98384.09;5012278;28;20112;-77
2023/06/03 00:51:49;;;;;;;9.52;4.63;;;;;;;12.77;63.54;98386.22;5021203;28;20517;-75
2023/06/03 00:54:14;;;;;;;8.98;4.93;;;;;;;12.54;64.18;98380.25;4999128;28;20087;-75
2023/06/03 00:56:44;;;;;;;6.68;4.50;;;;;;;12.39;64.44;98383.59;5011965;28;20368;-75
2023/06/03 00:59:15;;;;;;;8.45;4.70;;;;;;;12.75;62.86;98392.94;5012762;28;20038;-75
2023/06/03 01:01:42;;;;;;;7.20;4.80;;;;;;;12.31;65.10;98387.56;5002879;28;20033;-75
2023/06/03 01:04:12;;;;;;;8.65;5.20;;;;;;;12.35;64.85;98383.28;5017368;28;20078;-75
2023/06/03 01:06:47;;;;;;;10.82;5.00;;;;;;;12.33;64.63;98390.81;5029316;28;20061;-75
2023/06/03 01:09:32;;;;;;;7.35;4.60;;;;;;;12.39;64.16;98378.22;5016628;28;20052;-73
2023/06/03 01:12:09;;;;;;;8.10;4.70;;;;;;;12.54;64.07;98393.75;5000231;28;20131;-74
2023/06/03 01:14:44;;;;;;;9.65;4.30;;;;;;;12.35;64.65;98385.97;5000121;28;20124;-74
2023/06/03 01:17:11;;;;;;;10.38;5.18;;;;;;;12.07;65.64;98380.75;5017098;28;20038;-74
2023/06/03 01:19:48;;;;;;;6.68;4.50;;;;;;;12.31;65.04;98379.47;4998730;28;20029;-74
2023/06/03 01:22:26;;;;;;;7.95;5.15;;;;;;;12.12;65.31;98382.69;4996146;28;20030;-74
2023/06/03 01:25:11;;;;;;;9.38;4.78;;;;;;;12.23;64.71;98384.44;5017115;28;20033;-74
2023/06/03 01:27:41;;;;;;;7.60;4.70;;;;;;;12.05;65.24;98385.56;5004892;28;20033;-73
2023/06/03 01:30:09;;;;;;;10.77;5.50;;;;;;;12.18;65.35;98387.91;5045813;28;20494;-73
2023/06/03 01:32:37;;;;;;;7.68;4.72;;;;;;;12.09;65.58;98378.59;5007948;28;20018;-75
2023/06/03 01:35:04;;;;;;;6.45;4.30;;;;;;;11.89;66.19;98393.72;4999793;28;20034;-76
2023/06/03 01:37:30;;;;;;;10.05;4.75;;;;;;;11.85;66.77;98384.47;5007460;28;20017;-76
2023/06/03 01:39:56;;;;;;;9.80;4.95;;;;;;;11.85;66.54;98393.41;4999981;28;20491;-75
2023/06/03 01:42:22;;;;;;;10.50;4.88;;;;;;;11.86;65.83;98392.31;5023098;28;20022;-76
2023/06/03 01:44:47;;;;;;;8.15;4.90;;;;;;;11.88;65.97;98386.69;5022218;28;20043;-75
2023/06/03 01:47:13;;;;;;;9.48;4.78;;;;;;;12.06;65.04;98389.09;5006500;28;20073;-75
2023/06/03 01:49:40;;;;;;;6.75;4.53;;;;;;;11.99;65.61;98393.88;4990669;28;20060;-76
2023/06/03 01:52:05;;;;;;;9.98;5.50;;;;;;;11.74;66.86;98387.00;5007146;28;20064;-76
2023/06/03 01:54:32;;;;;;;7.63;5.28;;;;;;;11.68;66.75;98397.97;5002037;28;20040;-76
2023/06/03 01:56:57;;;;;;;7.93;5.03;;;;;;;11.96;65.98;98394.34;5006231;28;20044;-75
2023/06/03 01:59:24;;;;;;;6.80;4.80;;;;;;;11.85;65.56;98388.00;5003313;28;20558;-74
2023/06/03 02:01:54;;;;;;;6.75;4.60;;;;;;;11.93;65.57;98384.03;5009867;28;20483;-74
2023/06/03 02:04:20;;;;;;;7.80;4.63;;;;;;;11.90;65.72;98395.34;5016040;28;20034;-75
2023/06/03 02:06:53;;;;;;;9.75;4.90;;;;;;;11.85;65.60;98393.41;5025549;28;20033;-75
2023/06/03 02:09:24;;;;;;;9.50;4.80;;;;;;;11.89;65.45;98394.53;5012972;28;20108;-75
2023/06/03 02:11:52;;;;;;;6.88;4.82;;;;;;;11.84;65.27;98386.34;5009445;28;20029;-76
2023/06/03 02:14:18;;;;;;;8.73;4.70;;;;;;;11.65;65.95;98387.66;5000194;28;20100;-75
2023/06/03 02:16:43;;;;;;;8.23;4.45;;;;;;;11.68;65.31;98392.59;5015968;28;20068;-75
2023/06/03 02:19:24;;;;;;;8.52;4.45;;;;;;;11.76;64.95;98394.88;5012317;28;20454;-75
2023/06/03 02:21:50;;;;;;;9.13;4.53;;;;;;;11.90;64.44;98390.78;5026637;28;20559;-74
2023/06/03 02:24:16;;;;;;;8.80;5.30;;;;;;;11.62;65.40;98398.94;4998925;28;20120;-75
2023/06/03 02:26:56;;;;;;;9.63;5.05;;;;;;;11.70;64.65;98390.47;5028098;28;20373;-75
2023/06/03 02:29:25;;;;;;;12.10;4.57;;;;;;;11.74;64.03;98396.97;5009074;28;20043;-76
2023/06/03 02:31:53;;;;;;;9.20;4.78;;;;;;;11.92;63.65;98394.03;5002716;28;20057;-75
2023/06/03 02:34:19;;;;;;;7.22;4.22;;;;;;;11.60;64.88;98395.66;5024647;28;20033;-75
2023/06/03 02:36:46;;;;;;;8.60;4.85;;;;;;;11.57;64.53;98385.38;5040624;28;20026;-75
2023/06/03 02:39:13;;;;;;;9.82;5.20;;;;;;;11.48;65.35;98398.44;5006383;28;20029;-75
2023/06/03 02:41:41;;;;;;;7.50;4.65;;;;;;;11.57;64.63;98401.56;5004461;28;20690;-75
2023/06/03 02:44:07;;;;;;;8.38;4.20;;;;;;;11.70;64.60;98395.84;5007089;28;20037;-75
2023/06/03 02:46:33;;;;;;;7.97;4.45;;;;;;;11.72;64.43;98399.13;4999089;28;20037;-75
2023/06/03 02:49:03;;;;;;;6.85;4.50;;;;;;;11.77;64.20;98391.09;5006527;28;20055;-75
2023/06/03 02:51:28;;;;;;;7.95;4.57;;;;;;;11.58;64.44;98397.78;4996859;28;20056;-75
2023/06/03 02:53:54;;;;;;;9.95;4.35;;;;;;;11.85;63.21;98397.97;5003266;28;20584;-75
2023/06/03 02:56:19;;;;;;;7.85;4.18;;;;;;;11.61;63.77;98400.00;4995559;28;20022;-75
2023/06/03 02:58:45;;;;;;;7.75;4.47;;;;;;;11.62;64.04;98410.53;5023263;28;20072;-76
2023/06/03 03:01:11;;;;;;;8.07;3.88;;;;;;;11.51;64.59;98407.91;5042906;28;20029;-76
2023/06/03 03:03:36;;;;;;;7.22;4.72;;;;;;;11.69;63.47;98410.44;4991757;28;20482;-75
2023/06/03 03:06:11;;;;;;;9.48;4.40;;;;;;;11.71;63.45;98408.28;5013978;28;20030;-75
2023/06/03 03:08:37;;;;;;;8.07;4.60;;;;;;;11.55;63.92;98409.09;5005067;28;20037;-75
2023/06/03 03:11:03;;;;;;;8.10;4.63;;;;;;;11.64;63.47;98407.59;5011396;28;20049;-76
2023/06/03 03:13:28;;;;;;;11.75;4.53;;;;;;;11.72;62.28;98404.50;5007369;28;20557;-75
2023/06/03 03:15:54;;;;;;;7.10;4.53;;;;;;;11.53;63.44;98409.31;4982384;28;20030;-75
2023/06/03 03:18:20;;;;;;;7.90;4.65;;;;;;;11.57;63.75;98412.34;5006811;28;20040;-74
2023/06/03 03:20:46;;;;;;;9.07;4.30;;;;;;;11.55;63.59;98417.19;5011595;28;20033;-75
2023/06/03 03:23:14;;;;;;;9.40;4.60;;;;;;;11.37;64.54;98420.09;5023137;28;20576;-75
2023/06/03 03:25:40;;;;;;;6.30;4.75;;;;;;;11.33;64.56;98410.84;4999730;28;20034;-74
2023/06/03 03:28:06;;;;;;;7.90;4.40;;;;;;;11.40;64.26;98422.31;5007430;28;20048;-74
2023/06/03 03:30:32;;;;;;;8.00;4.57;;;;;;;11.56;63.91;98416.09;5019223;28;20396;-74
2023/06/03 03:32:59;;;;;;;8.68;4.43;;;;;;;11.28;64.21;98408.91;5005101;28;20030;-74
2023/06/03 03:35:25;;;;;;;7.45;4.80;;;;;;;11.33;64.46;98421.63;5025453;28;20036;-74
2023/06/03 03:38:02;;;;;;;7.68;4.28;;;;;;;11.40;64.13;98406.13;5024161;28;20032;-74
2023/06/03 03:40:30;;;;;;;7.50;4.40;;;;;;;11.35;64.51;98417.63;4983291;28;20579;-74
2023/06/03 03:42:58;;;;;;;6.38;3.97;;;;;;;11.77;63.33;98412.69;5007269;28;20053;-75
2023/06/03 03:45:30;;;;;;;8.32;4.70;;;;;;;11.75;63.04;98420.22;5011401;28;20038;-75
2023/06/03 03:48:02;;;;;;;7.03;3.97;;;;;;;11.83;63.07;98417.13;5019197;28;20063;-74
2023/06/03 03:50:45;;;;;;;6.82;4.45;;;;;;;11.94;62.07;98424.28;5009188;28;20033;-75
2023/06/03 03:53:15;;;;;;;6.25;4.47;;;;;;;11.92;62.47;98421.03;5011210;28;20049;-75
2023/06/03 03:55:51;;;;;;;5.35;4.15;;;;;;;11.75;62.89;98428.31;4998253;28;20084;-75
2023/06/03 03:58:27;;;;;;;5.57;4.22;;;;;;;11.93;62.54;98429.91;4998766;28;20030;-75
2023/06/03 04:00:59;;;;;;;9.32;5.07;;;;;;;11.71;63.04;98429.88;5023287;28;20064;-74
2023/06/03 04:03:25;;;;;;;6.60;4.13;;;;;;;12.27;61.74;98431.53;4997582;28;20372;-75
2023/06/03 04:05:51;;;;;;;6.13;3.85;;;;;;;12.14;62.61;98427.28;5010665;28;20029;-75
2023/06/03 04:08:43;;;;;;;7.35;4.00;;;;;;;12.05;63.04;98431.47;4987715;28;20084;-75
2023/06/03 04:11:19;;;;;;;7.03;4.28;;;;;;;11.99;62.38;98432.47;5017174;28;20087;-76
2023/06/03 04:13:44;;;;;;;;;;;;;;;11.98;62.99;98436.22;4997994;28;20037;-75
2023/06/03 04:16:12;;;;;;;11.23;4.82;;;;;;;12.24;61.57;98435.53;4999534;28;19909;-75
2023/06/03 04:18:40;;;;;;;6.32;4.70;;;;;;;12.21;61.77;98433.31;5001942;28;20046;-74
2023/06/03 04:21:09;;;;;;;5.80;4.28;;;;;;;12.33;61.82;98439.44;5009662;28;20033;-75
2023/06/03 04:23:34;;;;;;;7.70;3.85;;;;;;;12.59;60.86;98428.94;4979614;28;20116;-75
2023/06/03 04:26:02;;;;;;;9.63;4.70;;;;;;;12.21;62.00;98436.00;5019314;28;20116;-75
2023/06/03 04:28:27;;;;;;;5.63;4.28;;;;;;;12.44;61.35;98435.78;5002500;28;20586;-75
2023/06/03 04:30:53;;;;;;;8.10;3.92;;;;;;;12.40;61.72;98434.66;5009326;28;20028;-74
2023/06/03 04:33:19;;;;;;;6.90;4.40;;;;;;;12.12;61.74;98429.41;4977211;28;20524;-75
2023/06/03 04:35:45;;;;;;;8.88;4.07;;;;;;;12.75;60.02;98446.97;5016511;28;20071;-73
2023/06/03 04:38:10;;;;;;;6.10;4.20;;;;;;;12.96;59.42;98438.88;5018840;28;20154;-74
2023/06/03 04:40:37;;;;;;;7.80;4.07;;;;;;;12.45;61.32;98442.84;4995554;28;20058;-73
2023/06/03 04:43:03;;;;;;;7.65;4.30;;;;;;;12.70;60.12;98441.50;5014684;28;20026;-74
2023/06/03 04:45:31;;;;;;;7.95;3.85;;;;;;;12.40;61.11;98445.47;5005891;28;20021;-74
2023/06/03 04:48:01;;;;;;;6.25;4.60;;;;;;;12.48;61.05;98447.72;5025661;28;20041;-74
2023/06/03 04:50:33;;;;;;;7.38;3.40;;;;;;;13.02;59.64;98447.84;5008083;28;20052;-75
2023/06/03 04:52:59;;;;;;;6.10;3.85;;;;;;;12.98;59.69;98436.72;5009829;28;20037;-74
2023/06/03 04:55:25;;;;;;;6.90;3.72;;;;;;;13.17;59.76;98445.34;4997535;28;20056;-73
2023/06/03 04:57:52;;;;;;;7.40;4.15;;;;;;;13.22;58.98;98441.88;5013879;28;20048;-74
2023/06/03 05:00:21;;;;;;;7.03;3.90;;;;;;;12.79;59.44;98448.13;5029665;28;20476;-73
2023/06/03 05:02:55;;;;;;;6.93;3.92;;;;;;;13.13;58.76;98444.22;5029641;28;20040;-73
2023/06/03 05:05:25;;;;;;;6.10;4.00;;;;;;;12.96;60.00;98443.44;5005076;28;20372;-73
2023/06/03 05:07:52;;;;;;;5.78;3.78;;;;;;;13.34;59.01;98446.06;4997086;28;20032;-74
2023/06/03 05:10:18;;;;;;;5.50;3.67;;;;;;;13.00;59.70;98449.97;5006759;28;20109;-74
2023/06/03 05:12:45;;;;;;;6.15;3.55;;;;;;;13.35;58.46;98442.25;5006265;28;20030;-73
2023/06/03 05:15:11;;;;;;;6.45;3.95;;;;;;;13.43;58.26;98444.50;4997697;28;20057;-75
2023/06/03 05:17:39;;;;;;;7.32;3.80;;;;;;;13.73;57.91;98455.59;5034575;28;20073;-76
2023/06/03 05:20:09;;;;;;;6.85;3.70;;;;;;;13.30;58.62;98444.94;5019845;28;20025;-75
2023/06/03 05:22:35;;;;;;;5.50;4.00;;;;;;;13.49;59.60;98448.88;5000086;28;20385;-74
2023/06/03 05:25:05;;;;;;;8.25;3.97;;;;;;;13.18;59.60;98442.38;5019489;28;20115;-74
2023/06/03 05:27:30;;;;;;;8.48;3.90;;;;;;;13.55;58.85;98453.28;5012319;28;20116;-75
2023/06/03 05:29:56;;;;;;;7.20;3.85;;;;;;;13.58;58.63;98452.75;5025793;28;20101;-75
2023/06/03 05:32:21;;;;;;;6.93;3.63;;;;;;;13.84;57.69;98451.91;5024428;28;20518;-74
2023/06/03 05:34:47;;;;;;;7.78;4.25;;;;;;;13.52;58.14;98437.56;5020948;28;20023;-74
2023/06/03 05:37:13;;;;;;;7.15;4.07;;;;;;;13.82;58.26;98448.63;5004796;28;20033;-74
2023/06/03 05:39:39;;;;;;;9.40;3.40;;;;;;;14.29;56.58;98437.03;5005582;28;20024;-75
2023/06/03 05:42:07;;;;;;;8.60;4.30;;;;;;;14.52;55.61;98433.94;5000548;28;20040;-75
2023/06/03 05:44:33;;;;;;;6.15;3.53;;;;;;;14.90;53.02;98436.28;5021971;28;20100;-72
2023/06/03 05:46:58;;;;;;;6.97;4.03;;;;;;;14.81;53.88;98446.00;5001420;28;20034;-72
2023/06/03 05:49:24;;;;;;;7.30;4.07;;;;;;;15.05;52.65;98447.16;5033935;28;20468;-74
2023/06/03 05:51:50;;;;;;;6.80;3.65;;;;;;;14.97;54.07;98445.00;5027998;28;20112;-75
2023/06/03 05:54:15;;;;;;;5.22;3.08;;;;;;;15.23;51.54;98449.41;5010648;28;20047;-75
2023/06/03 05:56:40;;;;;;;6.20;4.15;;;;;;;15.35;52.30;98443.72;4983764;28;20033;-73
2023/06/03 05:59:06;;;;;;;5.25;3.30;;;;;;;15.18;51.06;98441.25;4999990;28;20033;-76
2023/06/03 06:01:36;;;;;;;8.38;3.65;;;;;;;15.37;51.53;98443.44;5028361;28;20112;-76
2023/06/03 06:04:02;;;;;;;7.82;3.28;;;;;;;15.50;51.55;98442.94;5026600;28;20072;-76
2023/06/03 06:06:28;;;;;;;4.53;3.05;;;;;;;15.53;50.94;98442.41;5005021;28;20018;-75
2023/06/03 06:08:53;;;;;;;6.28;3.10;;;;;;;15.53;50.72;98445.13;5053426;28;20059;-74
2023/06/03 06:11:19;;;;;;;7.55;3.50;;;;;;;15.58;50.29;98437.00;5011678;28;20029;-75
2023/06/03 06:13:44;;;;;;;5.18;3.20;;;;;;;15.79;51.15;98444.06;5010102;28;20036;-75
2023/06/03 06:16:11;;;;;;;3.97;3.05;;;;;;;15.95;48.34;98442.16;5011963;28;20060;-75
2023/06/03 06:18:36;;;;;;;7.93;3.10;;;;;;;15.81;49.58;98431.03;5030109;28;20119;-76
2023/06/03 06:21:03;;;;;;;5.32;3.20;;;;;;;16.13;49.44;98445.13;4996279;28;20022;-75
2023/06/03 06:23:29;;;;;;;5.05;3.10;;;;;;;15.94;49.28;98438.59;4996169;28;20022;-76
2023/06/03 06:25:55;;;;;;;5.97;3.13;;;;;;;15.99;48.18;98438.59;5014875;28;20025;-75
2023/06/03 06:28:26;;;;;;;5.30;3.13;;;;;;;16.28;48.21;98433.41;5025624;28;20068;-75
2023/06/03 06:30:54;;;;;;;5.43;2.72;;;;;;;16.28;48.03;98434.22;5003396;28;20072;-75
2023/06/03 06:33:19;;;;;;;7.75;3.45;;;;;;;16.40;47.76;98437.47;4998719;28;20025;-74
2023/06/03 06:35:45;;;;;;;4.95;3.03;;;;;;;16.26;46.97;98441.03;5015865;28;20522;-75
2023/06/03 06:38:11;;;;;;;4.40;3.00;;;;;;;16.45;47.42;98440.16;4999557;28;20533;-75
2023/06/03 06:40:40;;;;;;;4.55;2.85;;;;;;;16.74;47.01;98439.56;5005708;28;20095;-75
2023/06/03 06:43:15;;;;;;;5.30;3.20;;;;;;;17.00;46.37;98436.44;5000376;28;20022;-75
2023/06/03 06:45:44;;;;;;;8.55;3.28;;;;;;;16.53;46.08;98442.34;4986320;28;20041;-75
2023/06/03 06:48:12;;;;;;;7.07;2.95;;;;;;;16.51;45.28;98449.16;5015081;28;20025;-75
2023/06/03 06:50:49;;;;;;;4.32;2.70;;;;;;;16.78;44.50;98448.81;5008335;28;20034;-75
2023/06/03 06:53:18;;;;;;;6.30;2.80;;;;;;;16.51;44.94;98449.97;4996019;28;20057;-75
2023/06/03 06:55:48;;;;;;;5.55;2.78;;;;;;;17.10;45.22;98454.63;5003513;28;20029;-76
2023/06/03 06:58:15;;;;;;;6.40;2.85;;;;;;;17.35;44.80;98443.59;4986619;28;20061;-75
2023/06/03 07:00:42;;;;;;;4.35;2.90;;;;;;;17.39;44.60;98443.84;4998853;28;20118;-75
2023/06/03 07:03:09;;;;;;;4.90;2.92;;;;;;;17.31;44.53;98447.16;5001004;28;20484;-76
2023/06/03 07:05:34;;;;;;;6.63;3.10;;;;;;;17.30;43.34;98435.47;5002482;28;20373;-75
2023/06/03 07:08:00;;;;;;;6.47;3.17;;;;;;;17.32;43.68;98441.44;5002744;28;20171;-75
2023/06/03 07:10:25;;;;;;;5.50;3.03;;;;;;;17.03;43.96;98440.53;4988462;28;20024;-75
2023/06/03 07:12:52;;;;;;;4.45;3.10;;;;;;;17.38;43.90;98434.88;5010823;28;20072;-75
2023/06/03 07:15:18;;;;;;;5.22;2.90;;;;;;;17.50;44.18;98440.78;5002923;28;20399;-75
2023/06/03 07:17:48;;;;;;;5.47;3.30;;;;;;;17.06;43.82;98432.59;5010820;28;20060;-76
2023/06/03 07:20:29;;;;;;;5.72;2.88;;;;;;;17.50;43.73;98440.78;5009896;28;20029;-75
2023/06/03 07:22:55;;;;;;;6.40;3.22;;;;;;;17.41;43.12;98447.91;5023712;28;20044;-76
2023/06/03 07:25:32;;;;;;;5.85;2.70;;;;;;;17.63;43.11;98440.19;5000899;28;20037;-75
2023/06/03 07:27:57;;;;;;;6.72;2.92;;;;;;;17.85;43.17;98435.06;5007014;28;20090;-75
2023/06/03 07:30:23;;;;;;;4.03;2.78;;;;;;;17.54;43.15;98432.88;5017522;28;20489;-75
2023/06/03 07:32:50;;;;;;;5.43;2.90;;;;;;;17.91;43.33;98436.69;5022763;28;20033;-75
2023/06/03 07:35:18;;;;;;;4.10;2.80;;;;;;;17.92;43.28;98402.88;5027368;28;20025;-75
2023/06/03 07:37:43;;;;;;;6.93;3.20;;;;;;;17.90;42.15;98429.59;5021462;28;20029;-75
2023/06/03 07:40:15;;;;;;;5.47;3.30;;;;;;;18.09;41.90;98431.59;5001137;28;20028;-75
2023/06/03 07:42:44;;;;;;;6.60;2.80;;;;;;;18.06;42.91;98426.75;5004733;28;20034;-75
2023/06/03 07:45:13;;;;;;;7.15;3.17;;;;;;;17.93;42.28;98434.47;5001553;28;20029;-75
2023/06/03 07:47:39;;;;;;;5.38;2.92;;;;;;;18.37;42.41;98426.13;5020379;28;20044;-76
2023/06/03 07:50:21;;;;;;;5.57;3.15;;;;;;;18.51;41.81;98426.28;5002072;28;20453;-78
2023/06/03 07:52:46;;;;;;;4.68;3.05;;;;;;;18.60;40.95;98428.09;5030835;28;20052;-75
2023/06/03 07:55:12;;;;;;;5.22;3.03;;;;;;;18.18;41.60;98435.34;5030775;28;20026;-75
2023/06/03 07:57:42;;;;;;;3.90;2.72;;;;;;;18.81;41.99;98427.88;4996152;28;20120;-76
2023/06/03 08:00:08;;;;;;;4.60;2.67;;;;;;;18.43;41.86;98426.91;4987386;28;20376;-75
2023/06/03 08:02:38;;;;;;;4.85;2.88;;;;;;;18.81;41.87;98434.13;5020305;28;20026;-74
2023/06/03 08:05:04;;;;;;;4.18;2.92;;;;;;;18.77;40.98;98424.91;5041978;28;20080;-76
2023/06/03 08:07:30;;;;;;;5.55;3.00;;;;;;;19.09;40.28;98425.03;5010453;28;20026;-76
2023/06/03 08:09:55;;;;;;;6.13;3.20;;;;;;;19.14;41.32;98422.22;5017958;28;20090;-75
2023/06/03 08:12:28;;;;;;;6.53;2.92;;;;;;;19.13;40.30;98425.25;5014252;28;20041;-76
2023/06/03 08:14:54;;;;;;;6.80;3.17;;;;;;;19.14;41.29;98424.13;4998745;28;20049;-76
2023/06/03 08:17:35;;;;;;;5.35;3.10;;;;;;;19.46;40.54;98423.44;5010975;28;20030;-75
2023/06/03 08:20:07;;;;;;;7.35;3.22;;;;;;;19.63;39.91;98421.81;5022866;28;20037;-76
2023/06/03 08:22:39;;;;;;;7.00;2.95;;;;;;;19.60;41.54;98429.78;5002923;28;20475;-75
2023/06/03 08:25:05;;;;;;;7.45;3.10;;;;;;;19.37;39.76;98430.69;5010618;28;20511;-76
2023/06/03 08:27:31;;;;;;;5.25;3.22;;;;;;;19.48;38.90;98432.16;5017790;28;20052;-75
2023/06/03 08:29:57;;;;;;;6.53;3.25;;;;;;;19.15;41.36;98434.78;5016791;28;20072;-75
2023/06/03 08:32:23;;;;;;;4.97;2.83;;;;;;;19.44;41.19;98425.69;5010719;28;20030;-75
2023/06/03 08:34:48;;;;;;;6.38;3.00;;;;;;;18.76;41.14;98426.03;5004100;28;20034;-76
2023/06/03 08:37:13;;;;;;;6.38;3.10;;;;;;;19.53;40.40;98441.09;5035203;28;20025;-76
2023/06/03 08:39:39;;;;;;;4.85;3.20;;;;;;;19.74;39.65;98436.13;5038777;28;20491;-76
2023/06/03 08:42:09;;;;;;;6.45;3.28;;;;;;;19.86;40.08;98437.28;5035758;28;20115;-76
2023/06/03 08:44:44;;;;;;;5.68;3.15;;;;;;;19.69;39.20;98422.53;5017155;28;20030;-76
2023/06/03 08:47:17;;;;;;;4.10;3.10;;;;;;;19.84;39.22;98430.47;5019076;28;20076;-76
2023/06/03 08:50:05;;;;;;;5.63;3.03;;;;;;;19.91;38.85;98436.38;5018164;28;20045;-75
2023/06/03 08:52:33;;;;;;;5.75;3.38;;;;;;;19.63;38.96;98429.19;5007196;28;20057;-75
2023/06/03 08:55:00;;;;;;;6.28;2.90;;;;;;;19.73;41.15;98429.03;5013919;28;20033;-75
2023/06/03 08:57:28;;;;;;;4.60;3.17;;;;;;;19.61;39.96;98431.41;4998066;28;20060;-76
2023/06/03 08:59:53;;;;;;;4.07;3.10;;;;;;;20.08;38.54;98428.44;4994245;28;20349;-75
2023/06/03 09:02:19;;;;;;;6.47;3.20;;;;;;;19.79;39.66;98422.38;5038007;28;20087;-75
2023/06/03 09:04:47;;;;;;;5.32;3.05;;;;;;;20.20;39.50;98422.50;5030019;28;20068;-76
2023/06/03 09:07:14;;;;;;;6.88;3.30;;;;;;;20.15;38.33;98431.59;5011081;28;20072;-77
2023/06/03 09:09:40;;;;;;;6.00;3.10;;;;;;;20.12;38.43;98425.94;5006676;28;20075;-76
2023/06/03 09:12:06;;;;;;;6.53;3.17;;;;;;;20.26;39.48;98427.59;5021583;28;20047;-75
2023/06/03 09:14:32;;;;;;;7.05;3.15;;;;;;;20.38;38.80;98435.31;5029828;28;20104;-75
2023/06/03 09:16:58;;;;;;;4.35;3.20;;;;;;;20.52;38.42;98420.53;5011253;28;20038;-74
2023/06/03 09:19:26;;;;;;;8.90;3.20;;;;;;;20.52;37.79;98428.75;5017929;28;20025;-76
2023/06/03 09:21:56;;;;;;;4.85;3.03;;;;;;;20.38;38.15;98425.19;5011505;28;20033;-76
2023/06/03 09:24:21;;;;;;;6.43;3.28;;;;;;;20.37;38.40;98423.56;5012077;28;20038;-75
2023/06/03 09:26:47;;;;;;;5.07;3.20;;;;;;;20.67;38.43;98425.72;5031489;28;20033;-76
2023/06/03 09:29:13;;;;;;;4.88;2.90;;;;;;;20.68;37.01;98430.06;5008658;28;20513;-76
2023/06/03 09:31:40;;;;;;;9.00;3.40;;;;;;;20.78;36.99;98428.25;4998519;28;20014;-76
2023/06/03 09:34:06;;;;;;;5.93;2.92;;;;;;;20.81;37.06;98427.63;5034149;28;20044;-77
2023/06/03 09:36:46;;;;;;;5.47;3.15;;;;;;;20.78;36.90;98417.28;5028078;28;20456;-76
2023/06/03 09:39:16;;;;;;;8.70;3.05;;;;;;;21.03;35.66;98424.97;5023947;28;20037;-76
2023/06/03 09:41:42;;;;;;;4.07;3.08;;;;;;;20.85;36.87;98424.00;5006503;28;20045;-76
2023/06/03 09:44:10;;;;;;;4.93;3.03;;;;;;;21.21;36.17;98416.66;5021509;28;20030;-75
2023/06/03 09:46:36;;;;;;;6.45;3.20;;;;;;;21.38;36.63;98416.00;5045390;28;20053;-75
2023/06/03 09:49:12;;;;;;;7.47;3.17;;;;;;;21.10;36.46;98412.53;5024708;28;20025;-76
2023/06/03 09:51:41;;;;;;;;;;;;;;;21.28;35.66;98419.00;5022043;28;20034;-75
2023/06/03 09:54:13;;;;;;;3.63;3.00;;;;;;;21.35;35.67;98411.16;5039766;28;20401;-76
2023/06/03 09:56:39;;;;;;;6.57;3.47;;;;;;;21.12;35.38;98412.22;5034219;28;20037;-76
2023/06/03 09:59:18;;;;;;;5.60;3.38;;;;;;;21.14;35.41;98420.94;5016323;28;20025;-76
2023/06/03 10:01:46;;;;;;;4.35;3.15;;;;;;;21.11;35.42;98416.06;5044008;28;20033;-76
2023/06/03 10:04:12;;;;;;;5.75;2.80;;;;;;;21.33;35.98;98424.38;5015942;28;20060;-76
2023/06/03 10:06:38;;;;;;;4.72;2.85;;;;;;;21.51;36.51;98425.31;5027162;28;20475;-76
2023/06/03 10:09:25;;;;;;;5.78;3.00;;;;;;;21.81;35.61;98414.44;5016202;28;20021;-75
2023/06/03 10:11:52;;;;;;;5.07;2.90;;;;;;;21.55;34.54;98421.63;5037358;28;20052;-76
2023/06/03 10:14:25;;;;;;;4.40;2.90;;;;;;;21.80;35.39;98423.78;5029709;28;20029;-76
2023/06/03 10:17:09;;;;;;;4.95;2.97;;;;;;;22.29;33.43;98422.00;5020052;28;20407;-76
2023/06/03 10:19:40;;;;;;;4.85;2.90;;;;;;;22.18;33.66;98417.91;4999187;28;20411;-76
2023/06/03 10:22:06;;;;;;;6.82;3.22;;;;;;;22.22;33.39;98407.94;5016611;28;20033;-76
2023/06/03 10:24:34;;;;;;;6.05;2.92;;;;;;;21.88;33.88;98403.88;5024630;28;20025;-76
2023/06/03 10:27:00;;;;;;;5.05;3.10;;;;;;;22.31;34.25;98406.06;5016333;28;20042;-76
2023/06/03 10:29:26;;;;;;;5.13;3.28;;;;;;;22.06;32.85;98413.00;5022681;28;20057;-75
2023/06/03 10:31:53;;;;;;;5.18;3.30;;;;;;;22.06;32.08;98414.94;5007684;28;20076;-76
2023/06/03 10:34:19;;;;;;;7.95;3.33;;;;;;;22.33;33.10;98403.81;5011870;28;20033;-76
2023/06/03 10:36:51;;;;;;;6.68;3.53;;;;;;;22.52;32.53;98409.88;5015113;28;20264;-76
2023/06/03 10:39:16;;;;;;;4.68;3.13;;;;;;;22.35;32.55;98410.59;5022562;28;20482;-76
2023/06/03 10:41:41;;;;;;;4.68;3.03;;;;;;;22.65;32.43;98406.22;5021052;28;20116;-76
2023/06/03 10:44:07;;;;;;;4.78;3.03;;;;;;;22.60;32.10;98398.09;5042533;28;20037;-76
2023/06/03 10:46:33;;;;;;;5.07;3.25;;;;;;;22.71;31.32;98404.16;5032096;28;20058;-76
2023/06/03 10:49:01;;;;;;;3.58;2.90;;;;;;;22.30;31.40;98416.22;5019864;28;20123;-75
2023/06/03 10:51:45;;;;;;;4.70;3.28;;;;;;;23.01;31.29;98409.56;4999096;28;20030;-76
2023/06/03 10:54:51;;;;;;;5.25;3.33;;;;;;;22.73;32.82;98401.91;5039532;28;20038;-76
2023/06/03 10:57:20;;;;;;;6.38;3.63;;;;;;;23.60;31.02;98398.97;5015295;28;20060;-76
2023/06/03 10:59:46;;;;;;;8.13;3.03;;;;;;;23.35;31.70;98398.66;5020829;28;20021;-76
2023/06/03 11:02:12;;;;;;;7.88;3.15;;;;;;;22.46;31.48;98397.41;5021001;28;20084;-76
2023/06/03 11:04:38;;;;;;;5.03;3.92;;;;;;;22.47;32.44;98399.03;5027626;28;20613;-75
2023/06/03 11:07:05;;;;;;;7.28;3.63;;;;;;;23.59;30.90;98397.38;5007570;28;20044;-75
2023/06/03 11:09:35;;;;;;;6.00;2.85;;;;;;;22.41;31.95;98400.28;4999349;28;20029;-74
2023/06/03 11:12:09;;;;;;;5.82;3.30;;;;;;;22.95;32.27;98401.78;5011578;28;20478;-74
2023/06/03 11:14:41;;;;;;;3.40;2.75;;;;;;;23.33;31.32;98400.09;4986332;28;20072;-75
2023/06/03 11:17:12;;;;;;;8.18;3.00;;;;;;;23.62;30.20;98391.25;5010404;28;20475;-75
2023/06/03 11:19:40;;;;;;;5.57;2.60;;;;;;;23.53;30.68;98406.91;5009311;28;20040;-75
2023/06/03 11:22:08;;;;;;;3.78;2.83;;;;;;;23.60;30.40;98398.97;5027297;28;20108;-76
2023/06/03 11:24:39;;;;;;;4.13;3.00;;;;;;;23.44;29.51;98400.59;5032028;28;20040;-75
2023/06/03 11:27:14;;;;;;;12.30;8.93;;;;;;;24.09;29.31;98398.47;5029276;28;20033;-75
2023/06/03 11:29:48;;;;;;;4.88;3.10;;;;;;;23.52;29.92;98397.06;5024917;28;20038;-76
2023/06/03 11:32:21;;;;;;;3.88;2.60;;;;;;;24.33;29.87;98401.50;5027402;28;20033;-75
2023/06/03 11:34:48;;;;;;;6.80;3.15;;;;;;;24.28;29.37;98382.38;5031165;28;20087;-76
2023/06/03 11:37:19;;;;;;;6.40;3.03;;;;;;;24.46;30.28;98383.13;5019285;28;20025;-76
2023/06/03 11:40:07;;;;;;;7.28;3.78;;;;;;;24.34;29.42;98396.78;4998075;28;20107;-75